sensor_id;sensor_type;location;lat;lon;timestamp;P1;durP1;ratioP1;P2;durP2;ratioP2
21494;SDS011;10909;53.590;10.054;2023-08-07T00:00:41;2.33;;;1.38;;
21494;SDS011;10909;53.590;10.054;2023-08-07T00:03:06;2.28;;;1.63;;
21494;SDS011;10909;53.590;10.054;2023-08-07T00:05:32;2.45;;;1.20;;
21494;SDS011;10909;53.590;10.054;2023-08-07T00:07:57;1.60;;;1.23;;
21494;SDS011;10909;53.590;10.054;2023-08-07T00:10:23;3.67;;;1.48;;
21494;SDS011;10909;53.590;10.054;2023-08-07T00:12:49;1.33;;;1.20;;
21494;SDS011;10909;53.590;10.054;2023-08-07T00:15:15;1.45;;;1.25;;
21494;SDS011;10909;53.590;10.054;2023-08-07T00:17:41;2.65;;;1.60;;
21494;SDS011;10909;53.590;10.054;2023-08-07T00:20:06;1.42;;;1.20;;
21494;SDS011;10909;53.590;10.054;2023-08-07T00:22:33;1.40;;;1.30;;
21494;SDS011;10909;53.590;10.054;2023-08-07T00:24:58;2.15;;;1.60;;
21494;SDS011;10909;53.590;10.054;2023-08-07T00:27:24;3.05;;;1.33;;
21494;SDS011;10909;53.590;10.054;2023-08-07T00:29:50;1.55;;;1.30;;
21494;SDS011;10909;53.590;10.054;2023-08-07T00:32:15;2.47;;;1.40;;
21494;SDS011;10909;53.590;10.054;2023-08-07T00:34:41;2.47;;;1.50;;
21494;SDS011;10909;53.590;10.054;2023-08-07T00:37:07;1.65;;;1.08;;
21494;SDS011;10909;53.590;10.054;2023-08-07T00:39:32;1.67;;;1.30;;
21494;SDS011;10909;53.590;10.054;2023-08-07T00:41:58;2.88;;;1.33;;
21494;SDS011;10909;53.590;10.054;2023-08-07T00:44:23;1.50;;;1.40;;
21494;SDS011;10909;53.590;10.054;2023-08-07T00:46:49;2.03;;;1.38;;
21494;SDS011;10909;53.590;10.054;2023-08-07T00:49:15;1.65;;;1.30;;
21494;SDS011;10909;53.590;10.054;2023-08-07T00:51:43;1.40;;;1.23;;
21494;SDS011;10909;53.590;10.054;2023-08-07T00:54:10;1.75;;;1.10;;
21494;SDS011;10909;53.590;10.054;2023-08-07T00:56:39;1.40;;;1.25;;
21494;SDS011;10909;53.590;10.054;2023-08-07T00:59:04;1.95;;;1.23;;
21494;SDS011;10909;53.590;10.054;2023-08-07T01:01:30;2.58;;;1.40;;
21494;SDS011;10909;53.590;10.054;2023-08-07T01:03:56;1.77;;;1.40;;
21494;SDS011;10909;53.590;10.054;2023-08-07T01:06:22;2.08;;;1.38;;
21494;SDS011;10909;53.590;10.054;2023-08-07T01:08:47;1.35;;;1.15;;
21494;SDS011;10909;53.590;10.054;2023-08-07T01:16:52;2.45;;;1.23;;
21494;SDS011;10909;53.590;10.054;2023-08-07T01:19:26;1.48;;;1.30;;
21494;SDS011;10909;53.590;10.054;2023-08-07T01:22:06;1.40;;;1.17;;
21494;SDS011;10909;53.590;10.054;2023-08-07T01:24:34;2.03;;;1.30;;
21494;SDS011;10909;53.590;10.054;2023-08-07T01:32:37;2.72;;;1.50;;
21494;SDS011;10909;53.590;10.054;2023-08-07T01:35:20;1.58;;;1.40;;
21494;SDS011;10909;53.590;10.054;2023-08-07T01:37:50;4.10;;;1.70;;
21494;SDS011;10909;53.590;10.054;2023-08-07T01:40:19;1.40;;;1.30;;
21494;SDS011;10909;53.590;10.054;2023-08-07T01:42:46;1.90;;;1.42;;
21494;SDS011;10909;53.590;10.054;2023-08-07T01:45:13;2.25;;;1.50;;
21494;SDS011;10909;53.590;10.054;2023-08-07T01:47:39;1.50;;;1.20;;
21494;SDS011;10909;53.590;10.054;2023-08-07T01:50:05;1.17;;;1.08;;
21494;SDS011;10909;53.590;10.054;2023-08-07T01:52:31;1.75;;;1.30;;
21494;SDS011;10909;53.590;10.054;2023-08-07T01:54:56;3.78;;;1.42;;
21494;SDS011;10909;53.590;10.054;2023-08-07T01:57:22;1.40;;;1.30;;
21494;SDS011;10909;53.590;10.054;2023-08-07T01:59:48;1.55;;;1.45;;
21494;SDS011;10909;53.590;10.054;2023-08-07T02:02:13;1.35;;;1.13;;
21494;SDS011;10909;53.590;10.054;2023-08-07T02:04:39;1.48;;;1.17;;
21494;SDS011;10909;53.590;10.054;2023-08-07T02:07:05;3.10;;;1.30;;
21494;SDS011;10909;53.590;10.054;2023-08-07T02:09:30;1.48;;;1.35;;
21494;SDS011;10909;53.590;10.054;2023-08-07T02:11:56;2.47;;;1.40;;
21494;SDS011;10909;53.590;10.054;2023-08-07T02:14:21;1.60;;;1.38;;
21494;SDS011;10909;53.590;10.054;2023-08-07T02:16:47;1.80;;;1.40;;
21494;SDS011;10909;53.590;10.054;2023-08-07T02:19:12;2.83;;;1.20;;
21494;SDS011;10909;53.590;10.054;2023-08-07T02:21:38;1.55;;;1.20;;
21494;SDS011;10909;53.590;10.054;2023-08-07T02:24:04;1.40;;;1.20;;
21494;SDS011;10909;53.590;10.054;2023-08-07T02:26:29;1.58;;;1.38;;
21494;SDS011;10909;53.590;10.054;2023-08-07T02:28:55;1.30;;;1.13;;
21494;SDS011;10909;53.590;10.054;2023-08-07T02:31:21;3.40;;;1.40;;
21494;SDS011;10909;53.590;10.054;2023-08-07T02:33:46;1.63;;;1.20;;
21494;SDS011;10909;53.590;10.054;2023-08-07T02:36:12;1.73;;;1.27;;
21494;SDS011;10909;53.590;10.054;2023-08-07T02:38:37;1.92;;;1.30;;
21494;SDS011;10909;53.590;10.054;2023-08-07T02:41:03;1.60;;;1.23;;
21494;SDS011;10909;53.590;10.054;2023-08-07T02:43:29;1.60;;;1.30;;
21494;SDS011;10909;53.590;10.054;2023-08-07T02:45:57;2.40;;;1.30;;
21494;SDS011;10909;53.590;10.054;2023-08-07T02:48:23;1.67;;;1.23;;
21494;SDS011;10909;53.590;10.054;2023-08-07T02:50:49;2.72;;;1.30;;
21494;SDS011;10909;53.590;10.054;2023-08-07T02:53:19;2.40;;;1.30;;
21494;SDS011;10909;53.590;10.054;2023-08-07T02:55:45;1.27;;;1.10;;
21494;SDS011;10909;53.590;10.054;2023-08-07T02:58:10;4.15;;;1.40;;
21494;SDS011;10909;53.590;10.054;2023-08-07T03:00:36;2.67;;;1.33;;
21494;SDS011;10909;53.590;10.054;2023-08-07T03:03:02;1.95;;;1.35;;
21494;SDS011;10909;53.590;10.054;2023-08-07T03:05:30;1.20;;;1.10;;
21494;SDS011;10909;53.590;10.054;2023-08-07T03:07:56;1.77;;;1.30;;
21494;SDS011;10909;53.590;10.054;2023-08-07T03:10:21;3.42;;;1.10;;
21494;SDS011;10909;53.590;10.054;2023-08-07T03:12:47;5.40;;;1.38;;
21494;SDS011;10909;53.590;10.054;2023-08-07T03:15:12;1.48;;;1.13;;
21494;SDS011;10909;53.590;10.054;2023-08-07T03:17:38;1.75;;;1.20;;
21494;SDS011;10909;53.590;10.054;2023-08-07T03:20:04;1.65;;;1.35;;
21494;SDS011;10909;53.590;10.054;2023-08-07T03:22:30;1.85;;;1.00;;
21494;SDS011;10909;53.590;10.054;2023-08-07T03:24:55;1.15;;;1.02;;
21494;SDS011;10909;53.590;10.054;2023-08-07T03:27:21;1.27;;;1.10;;
21494;SDS011;10909;53.590;10.054;2023-08-07T03:29:46;1.25;;;1.00;;
21494;SDS011;10909;53.590;10.054;2023-08-07T03:32:12;1.10;;;1.00;;
21494;SDS011;10909;53.590;10.054;2023-08-07T03:34:38;1.58;;;1.30;;
21494;SDS011;10909;53.590;10.054;2023-08-07T03:37:03;1.88;;;1.08;;
21494;SDS011;10909;53.590;10.054;2023-08-07T03:39:29;2.50;;;1.30;;
21494;SDS011;10909;53.590;10.054;2023-08-07T03:41:54;4.25;;;1.45;;
21494;SDS011;10909;53.590;10.054;2023-08-07T03:44:20;1.48;;;1.30;;
21494;SDS011;10909;53.590;10.054;2023-08-07T03:46:46;3.30;;;1.10;;
21494;SDS011;10909;53.590;10.054;2023-08-07T03:49:11;1.85;;;1.40;;
21494;SDS011;10909;53.590;10.054;2023-08-07T03:51:37;1.98;;;1.20;;
21494;SDS011;10909;53.590;10.054;2023-08-07T03:54:02;2.97;;;1.45;;
21494;SDS011;10909;53.590;10.054;2023-08-07T03:56:28;3.13;;;1.10;;
21494;SDS011;10909;53.590;10.054;2023-08-07T03:58:57;2.63;;;1.20;;
21494;SDS011;10909;53.590;10.054;2023-08-07T04:01:23;2.53;;;1.20;;
21494;SDS011;10909;53.590;10.054;2023-08-07T04:03:48;2.70;;;1.55;;
21494;SDS011;10909;53.590;10.054;2023-08-07T04:06:14;2.00;;;1.13;;
21494;SDS011;10909;53.590;10.054;2023-08-07T04:08:41;3.75;;;1.48;;
21494;SDS011;10909;53.590;10.054;2023-08-07T04:11:07;1.58;;;1.30;;
21494;SDS011;10909;53.590;10.054;2023-08-07T04:13:34;4.20;;;1.52;;
21494;SDS011;10909;53.590;10.054;2023-08-07T04:16:00;1.65;;;1.30;;
21494;SDS011;10909;53.590;10.054;2023-08-07T04:18:29;1.30;;;1.20;;
21494;SDS011;10909;53.590;10.054;2023-08-07T04:20:58;1.95;;;1.30;;
21494;SDS011;10909;53.590;10.054;2023-08-07T04:23:24;3.28;;;1.50;;
21494;SDS011;10909;53.590;10.054;2023-08-07T04:25:50;2.08;;;1.38;;
21494;SDS011;10909;53.590;10.054;2023-08-07T04:28:17;2.10;;;1.20;;
21494;SDS011;10909;53.590;10.054;2023-08-07T04:30:43;2.95;;;1.45;;
21494;SDS011;10909;53.590;10.054;2023-08-07T04:33:09;1.95;;;1.25;;
21494;SDS011;10909;53.590;10.054;2023-08-07T04:35:35;1.40;;;1.30;;
21494;SDS011;10909;53.590;10.054;2023-08-07T04:38:01;2.63;;;1.58;;
21494;SDS011;10909;53.590;10.054;2023-08-07T04:40:28;4.20;;;1.30;;
21494;SDS011;10909;53.590;10.054;2023-08-07T04:42:54;2.58;;;1.60;;
21494;SDS011;10909;53.590;10.054;2023-08-07T04:45:20;3.58;;;1.30;;
21494;SDS011;10909;53.590;10.054;2023-08-07T04:47:46;3.58;;;1.60;;
21494;SDS011;10909;53.590;10.054;2023-08-07T04:50:11;3.08;;;1.48;;
21494;SDS011;10909;53.590;10.054;2023-08-07T04:52:37;3.42;;;1.42;;
21494;SDS011;10909;53.590;10.054;2023-08-07T04:55:03;2.72;;;1.40;;
21494;SDS011;10909;53.590;10.054;2023-08-07T04:57:29;3.67;;;1.55;;
21494;SDS011;10909;53.590;10.054;2023-08-07T04:59:55;5.85;;;1.58;;
21494;SDS011;10909;53.590;10.054;2023-08-07T05:02:21;6.13;;;1.70;;
21494;SDS011;10909;53.590;10.054;2023-08-07T05:04:46;6.20;;;1.80;;
21494;SDS011;10909;53.590;10.054;2023-08-07T05:07:12;4.75;;;1.80;;
21494;SDS011;10909;53.590;10.054;2023-08-07T05:09:38;1.95;;;1.42;;
21494;SDS011;10909;53.590;10.054;2023-08-07T05:12:05;2.60;;;1.58;;
21494;SDS011;10909;53.590;10.054;2023-08-07T05:14:32;2.78;;;1.58;;
21494;SDS011;10909;53.590;10.054;2023-08-07T05:16:58;2.92;;;1.60;;
21494;SDS011;10909;53.590;10.054;2023-08-07T05:19:24;3.20;;;1.60;;
21494;SDS011;10909;53.590;10.054;2023-08-07T05:21:50;4.80;;;1.70;;
21494;SDS011;10909;53.590;10.054;2023-08-07T05:24:16;3.03;;;1.30;;
21494;SDS011;10909;53.590;10.054;2023-08-07T05:26:42;2.08;;;1.70;;
21494;SDS011;10909;53.590;10.054;2023-08-07T05:29:08;2.72;;;1.60;;
21494;SDS011;10909;53.590;10.054;2023-08-07T05:31:34;3.03;;;1.73;;
21494;SDS011;10909;53.590;10.054;2023-08-07T05:33:59;4.43;;;1.52;;
21494;SDS011;10909;53.590;10.054;2023-08-07T05:36:26;2.53;;;1.38;;
21494;SDS011;10909;53.590;10.054;2023-08-07T05:38:52;2.20;;;1.55;;
21494;SDS011;10909;53.590;10.054;2023-08-07T05:41:17;2.13;;;1.60;;
21494;SDS011;10909;53.590;10.054;2023-08-07T05:43:45;3.92;;;1.80;;
21494;SDS011;10909;53.590;10.054;2023-08-07T05:46:10;3.25;;;1.63;;
21494;SDS011;10909;53.590;10.054;2023-08-07T05:48:36;5.97;;;2.03;;
21494;SDS011;10909;53.590;10.054;2023-08-07T05:51:01;3.78;;;1.50;;
21494;SDS011;10909;53.590;10.054;2023-08-07T05:53:27;4.07;;;1.60;;
21494;SDS011;10909;53.590;10.054;2023-08-07T05:55:53;3.58;;;1.60;;
21494;SDS011;10909;53.590;10.054;2023-08-07T05:58:19;3.03;;;1.60;;
21494;SDS011;10909;53.590;10.054;2023-08-07T06:00:45;3.63;;;1.73;;
21494;SDS011;10909;53.590;10.054;2023-08-07T06:03:11;4.35;;;1.88;;
21494;SDS011;10909;53.590;10.054;2023-08-07T06:05:37;6.47;;;1.90;;
21494;SDS011;10909;53.590;10.054;2023-08-07T06:08:03;4.25;;;1.70;;
21494;SDS011;10909;53.590;10.054;2023-08-07T06:10:29;5.13;;;1.73;;
21494;SDS011;10909;53.590;10.054;2023-08-07T06:12:55;3.72;;;2.15;;
21494;SDS011;10909;53.590;10.054;2023-08-07T06:15:21;4.30;;;1.90;;
21494;SDS011;10909;53.590;10.054;2023-08-07T06:17:46;3.95;;;2.03;;
21494;SDS011;10909;53.590;10.054;2023-08-07T06:20:12;3.20;;;1.55;;
21494;SDS011;10909;53.590;10.054;2023-08-07T06:22:39;4.75;;;1.92;;
21494;SDS011;10909;53.590;10.054;2023-08-07T06:25:05;4.22;;;2.10;;
21494;SDS011;10909;53.590;10.054;2023-08-07T06:27:32;5.32;;;1.80;;
21494;SDS011;10909;53.590;10.054;2023-08-07T06:29:57;5.13;;;1.67;;
21494;SDS011;10909;53.590;10.054;2023-08-07T06:32:24;4.00;;;2.10;;
21494;SDS011;10909;53.590;10.054;2023-08-07T06:34:50;4.95;;;1.75;;
21494;SDS011;10909;53.590;10.054;2023-08-07T06:37:16;4.43;;;1.67;;
21494;SDS011;10909;53.590;10.054;2023-08-07T06:39:42;4.15;;;1.75;;
21494;SDS011;10909;53.590;10.054;2023-08-07T06:42:07;4.57;;;2.03;;
21494;SDS011;10909;53.590;10.054;2023-08-07T06:44:33;5.03;;;1.73;;
21494;SDS011;10909;53.590;10.054;2023-08-07T06:46:59;6.00;;;2.20;;
21494;SDS011;10909;53.590;10.054;2023-08-07T06:49:24;5.07;;;1.98;;
21494;SDS011;10909;53.590;10.054;2023-08-07T06:51:50;9.07;;;2.10;;
21494;SDS011;10909;53.590;10.054;2023-08-07T06:54:16;4.28;;;2.13;;
21494;SDS011;10909;53.590;10.054;2023-08-07T06:56:41;10.00;;;2.90;;
21494;SDS011;10909;53.590;10.054;2023-08-07T06:59:08;7.78;;;2.65;;
21494;SDS011;10909;53.590;10.054;2023-08-07T07:01:34;4.88;;;1.75;;
21494;SDS011;10909;53.590;10.054;2023-08-07T07:04:00;3.10;;;2.30;;
21494;SDS011;10909;53.590;10.054;2023-08-07T07:06:28;6.93;;;2.40;;
21494;SDS011;10909;53.590;10.054;2023-08-07T07:08:54;8.57;;;3.00;;
21494;SDS011;10909;53.590;10.054;2023-08-07T07:11:20;6.70;;;2.65;;
21494;SDS011;10909;53.590;10.054;2023-08-07T07:13:49;6.97;;;2.92;;
21494;SDS011;10909;53.590;10.054;2023-08-07T07:16:17;5.28;;;2.25;;
21494;SDS011;10909;53.590;10.054;2023-08-07T07:18:43;6.30;;;2.70;;
21494;SDS011;10909;53.590;10.054;2023-08-07T07:21:08;7.07;;;2.63;;
21494;SDS011;10909;53.590;10.054;2023-08-07T07:23:34;8.68;;;2.90;;
21494;SDS011;10909;53.590;10.054;2023-08-07T07:25:59;5.32;;;2.30;;
21494;SDS011;10909;53.590;10.054;2023-08-07T07:28:27;6.97;;;3.00;;
21494;SDS011;10909;53.590;10.054;2023-08-07T07:30:53;6.10;;;2.80;;
21494;SDS011;10909;53.590;10.054;2023-08-07T07:33:19;6.32;;;2.38;;
21494;SDS011;10909;53.590;10.054;2023-08-07T07:35:44;4.53;;;2.40;;
21494;SDS011;10909;53.590;10.054;2023-08-07T07:38:10;4.35;;;2.55;;
21494;SDS011;10909;53.590;10.054;2023-08-07T07:40:35;6.25;;;2.92;;
21494;SDS011;10909;53.590;10.054;2023-08-07T07:43:02;7.20;;;2.90;;
21494;SDS011;10909;53.590;10.054;2023-08-07T07:45:28;8.52;;;2.97;;
21494;SDS011;10909;53.590;10.054;2023-08-07T07:47:55;5.35;;;2.60;;
21494;SDS011;10909;53.590;10.054;2023-08-07T07:50:21;8.05;;;2.33;;
21494;SDS011;10909;53.590;10.054;2023-08-07T07:52:47;5.95;;;2.47;;
21494;SDS011;10909;53.590;10.054;2023-08-07T07:55:12;4.78;;;2.63;;
21494;SDS011;10909;53.590;10.054;2023-08-07T07:57:39;8.95;;;2.63;;
21494;SDS011;10909;53.590;10.054;2023-08-07T08:00:05;6.57;;;2.30;;
21494;SDS011;10909;53.590;10.054;2023-08-07T08:02:35;8.55;;;2.67;;
21494;SDS011;10909;53.590;10.054;2023-08-07T08:05:03;7.70;;;2.95;;
21494;SDS011;10909;53.590;10.054;2023-08-07T08:07:29;7.00;;;3.35;;
21494;SDS011;10909;53.590;10.054;2023-08-07T08:09:57;6.05;;;2.55;;
21494;SDS011;10909;53.590;10.054;2023-08-07T08:12:25;4.97;;;2.45;;
21494;SDS011;10909;53.590;10.054;2023-08-07T08:14:51;6.35;;;2.90;;
21494;SDS011;10909;53.590;10.054;2023-08-07T08:17:16;5.32;;;2.47;;
21494;SDS011;10909;53.590;10.054;2023-08-07T08:19:42;5.18;;;2.75;;
21494;SDS011;10909;53.590;10.054;2023-08-07T08:22:07;4.18;;;2.45;;
21494;SDS011;10909;53.590;10.054;2023-08-07T08:24:33;4.65;;;2.40;;
21494;SDS011;10909;53.590;10.054;2023-08-07T08:26:59;6.65;;;2.65;;
21494;SDS011;10909;53.590;10.054;2023-08-07T08:29:26;8.32;;;3.42;;
21494;SDS011;10909;53.590;10.054;2023-08-07T08:31:53;5.85;;;2.45;;
21494;SDS011;10909;53.590;10.054;2023-08-07T08:34:20;6.93;;;2.40;;
21494;SDS011;10909;53.590;10.054;2023-08-07T08:36:46;7.53;;;2.80;;
21494;SDS011;10909;53.590;10.054;2023-08-07T08:39:13;7.75;;;3.03;;
21494;SDS011;10909;53.590;10.054;2023-08-07T08:41:39;6.68;;;2.83;;
21494;SDS011;10909;53.590;10.054;2023-08-07T08:44:07;4.90;;;2.45;;
21494;SDS011;10909;53.590;10.054;2023-08-07T08:46:36;9.43;;;2.97;;
21494;SDS011;10909;53.590;10.054;2023-08-07T08:49:03;7.57;;;2.50;;
21494;SDS011;10909;53.590;10.054;2023-08-07T08:51:30;8.25;;;2.72;;
21494;SDS011;10909;53.590;10.054;2023-08-07T08:53:57;6.85;;;3.17;;
21494;SDS011;10909;53.590;10.054;2023-08-07T08:56:24;7.95;;;2.70;;
21494;SDS011;10909;53.590;10.054;2023-08-07T08:58:50;9.90;;;3.00;;
21494;SDS011;10909;53.590;10.054;2023-08-07T09:01:17;6.38;;;2.70;;
21494;SDS011;10909;53.590;10.054;2023-08-07T09:03:46;7.20;;;2.97;;
21494;SDS011;10909;53.590;10.054;2023-08-07T09:06:17;7.80;;;2.72;;
21494;SDS011;10909;53.590;10.054;2023-08-07T09:08:44;8.23;;;2.75;;
21494;SDS011;10909;53.590;10.054;2023-08-07T09:11:10;5.60;;;2.38;;
21494;SDS011;10909;53.590;10.054;2023-08-07T09:13:39;5.63;;;2.70;;
21494;SDS011;10909;53.590;10.054;2023-08-07T09:16:07;8.65;;;3.30;;
21494;SDS011;10909;53.590;10.054;2023-08-07T09:18:34;8.88;;;2.88;;
21494;SDS011;10909;53.590;10.054;2023-08-07T09:21:01;9.27;;;2.80;;
21494;SDS011;10909;53.590;10.054;2023-08-07T09:23:27;5.72;;;2.30;;
21494;SDS011;10909;53.590;10.054;2023-08-07T09:26:03;6.35;;;2.78;;
21494;SDS011;10909;53.590;10.054;2023-08-07T09:28:29;9.50;;;3.50;;
21494;SDS011;10909;53.590;10.054;2023-08-07T09:30:56;5.13;;;2.40;;
21494;SDS011;10909;53.590;10.054;2023-08-07T09:33:26;8.77;;;2.67;;
21494;SDS011;10909;53.590;10.054;2023-08-07T09:35:53;8.50;;;2.78;;
21494;SDS011;10909;53.590;10.054;2023-08-07T09:38:23;7.63;;;3.00;;
21494;SDS011;10909;53.590;10.054;2023-08-07T09:40:49;4.38;;;2.58;;
21494;SDS011;10909;53.590;10.054;2023-08-07T09:43:21;5.20;;;2.25;;
21494;SDS011;10909;53.590;10.054;2023-08-07T09:45:47;4.65;;;2.10;;
21494;SDS011;10909;53.590;10.054;2023-08-07T09:48:20;4.55;;;2.40;;
21494;SDS011;10909;53.590;10.054;2023-08-07T09:50:48;6.03;;;2.42;;
21494;SDS011;10909;53.590;10.054;2023-08-07T09:53:14;4.82;;;2.47;;
21494;SDS011;10909;53.590;10.054;2023-08-07T09:55:40;6.38;;;2.67;;
21494;SDS011;10909;53.590;10.054;2023-08-07T09:58:07;4.68;;;2.20;;
21494;SDS011;10909;53.590;10.054;2023-08-07T10:00:34;6.32;;;2.50;;
21494;SDS011;10909;53.590;10.054;2023-08-07T10:03:05;5.65;;;2.50;;
21494;SDS011;10909;53.590;10.054;2023-08-07T10:05:31;5.95;;;2.83;;
21494;SDS011;10909;53.590;10.054;2023-08-07T10:07:57;7.13;;;2.53;;
21494;SDS011;10909;53.590;10.054;2023-08-07T10:10:23;6.10;;;3.00;;
21494;SDS011;10909;53.590;10.054;2023-08-07T10:12:50;7.95;;;3.25;;
21494;SDS011;10909;53.590;10.054;2023-08-07T10:15:17;6.50;;;3.05;;
21494;SDS011;10909;53.590;10.054;2023-08-07T10:17:44;5.65;;;2.30;;
21494;SDS011;10909;53.590;10.054;2023-08-07T10:20:10;4.15;;;2.47;;
21494;SDS011;10909;53.590;10.054;2023-08-07T10:22:38;7.45;;;2.25;;
21494;SDS011;10909;53.590;10.054;2023-08-07T10:25:05;7.97;;;2.80;;
21494;SDS011;10909;53.590;10.054;2023-08-07T10:27:33;7.40;;;2.30;;
21494;SDS011;10909;53.590;10.054;2023-08-07T10:30:02;5.53;;;2.53;;
21494;SDS011;10909;53.590;10.054;2023-08-07T10:32:32;4.93;;;2.47;;
21494;SDS011;10909;53.590;10.054;2023-08-07T10:35:02;7.15;;;2.83;;
21494;SDS011;10909;53.590;10.054;2023-08-07T10:37:31;6.25;;;2.80;;
21494;SDS011;10909;53.590;10.054;2023-08-07T10:40:04;6.78;;;2.78;;
21494;SDS011;10909;53.590;10.054;2023-08-07T10:42:49;8.10;;;2.30;;
21494;SDS011;10909;53.590;10.054;2023-08-07T10:45:17;5.72;;;2.08;;
21494;SDS011;10909;53.590;10.054;2023-08-07T10:47:43;5.68;;;2.70;;
21494;SDS011;10909;53.590;10.054;2023-08-07T10:50:09;5.93;;;2.08;;
21494;SDS011;10909;53.590;10.054;2023-08-07T10:52:38;9.10;;;3.17;;
21494;SDS011;10909;53.590;10.054;2023-08-07T10:55:12;9.68;;;2.67;;
21494;SDS011;10909;53.590;10.054;2023-08-07T10:57:39;5.95;;;2.08;;
21494;SDS011;10909;53.590;10.054;2023-08-07T11:00:05;5.53;;;2.28;;
21494;SDS011;10909;53.590;10.054;2023-08-07T11:02:36;4.70;;;2.10;;
21494;SDS011;10909;53.590;10.054;2023-08-07T11:05:06;7.45;;;2.63;;
21494;SDS011;10909;53.590;10.054;2023-08-07T11:07:32;6.88;;;2.88;;
21494;SDS011;10909;53.590;10.054;2023-08-07T11:09:58;6.63;;;2.03;;
21494;SDS011;10909;53.590;10.054;2023-08-07T11:12:24;6.22;;;2.15;;
21494;SDS011;10909;53.590;10.054;2023-08-07T11:14:51;5.40;;;2.13;;
21494;SDS011;10909;53.590;10.054;2023-08-07T11:17:18;6.38;;;2.33;;
21494;SDS011;10909;53.590;10.054;2023-08-07T11:19:46;5.10;;;2.13;;
21494;SDS011;10909;53.590;10.054;2023-08-07T11:22:12;4.28;;;2.20;;
21494;SDS011;10909;53.590;10.054;2023-08-07T11:24:41;4.88;;;2.20;;
21494;SDS011;10909;53.590;10.054;2023-08-07T11:27:07;5.72;;;2.00;;
21494;SDS011;10909;53.590;10.054;2023-08-07T11:29:33;5.10;;;2.08;;
21494;SDS011;10909;53.590;10.054;2023-08-07T11:31:59;3.30;;;1.73;;
21494;SDS011;10909;53.590;10.054;2023-08-07T11:34:24;3.45;;;1.90;;
21494;SDS011;10909;53.590;10.054;2023-08-07T11:36:51;3.83;;;1.85;;
21494;SDS011;10909;53.590;10.054;2023-08-07T11:39:16;3.05;;;1.50;;
21494;SDS011;10909;53.590;10.054;2023-08-07T11:41:44;6.07;;;2.22;;
21494;SDS011;10909;53.590;10.054;2023-08-07T11:44:10;3.97;;;1.90;;
21494;SDS011;10909;53.590;10.054;2023-08-07T11:46:36;6.13;;;1.85;;
21494;SDS011;10909;53.590;10.054;2023-08-07T11:49:02;8.15;;;2.35;;
21494;SDS011;10909;53.590;10.054;2023-08-07T11:51:29;4.28;;;1.80;;
21494;SDS011;10909;53.590;10.054;2023-08-07T11:53:55;9.48;;;2.78;;
21494;SDS011;10909;53.590;10.054;2023-08-07T11:56:22;5.78;;;1.73;;
21494;SDS011;10909;53.590;10.054;2023-08-07T11:58:48;4.00;;;1.45;;
21494;SDS011;10909;53.590;10.054;2023-08-07T12:01:17;3.60;;;1.70;;
21494;SDS011;10909;53.590;10.054;2023-08-07T12:04:30;5.20;;;1.70;;
21494;SDS011;10909;53.590;10.054;2023-08-07T12:06:30;5.55;;;2.03;;
21494;SDS011;10909;53.590;10.054;2023-08-07T12:08:56;4.32;;;1.90;;
21494;SDS011;10909;53.590;10.054;2023-08-07T12:11:22;4.85;;;2.30;;
21494;SDS011;10909;53.590;10.054;2023-08-07T12:13:49;4.07;;;1.67;;
21494;SDS011;10909;53.590;10.054;2023-08-07T12:16:15;3.42;;;2.00;;
21494;SDS011;10909;53.590;10.054;2023-08-07T12:18:45;6.10;;;1.83;;
21494;SDS011;10909;53.590;10.054;2023-08-07T12:21:13;4.50;;;1.98;;
21494;SDS011;10909;53.590;10.054;2023-08-07T12:23:40;6.03;;;1.98;;
21494;SDS011;10909;53.590;10.054;2023-08-07T12:26:06;4.25;;;1.80;;
21494;SDS011;10909;53.590;10.054;2023-08-07T12:28:32;4.22;;;2.15;;
21494;SDS011;10909;53.590;10.054;2023-08-07T12:31:01;3.95;;;2.03;;
21494;SDS011;10909;53.590;10.054;2023-08-07T12:33:30;5.07;;;2.45;;
21494;SDS011;10909;53.590;10.054;2023-08-07T12:35:57;3.17;;;1.83;;
21494;SDS011;10909;53.590;10.054;2023-08-07T12:38:23;6.93;;;2.25;;
21494;SDS011;10909;53.590;10.054;2023-08-07T12:40:49;6.80;;;2.80;;
21494;SDS011;10909;53.590;10.054;2023-08-07T12:43:15;7.40;;;2.70;;
21494;SDS011;10909;53.590;10.054;2023-08-07T12:45:41;6.22;;;2.72;;
21494;SDS011;10909;53.590;10.054;2023-08-07T12:48:08;4.40;;;2.30;;
21494;SDS011;10909;53.590;10.054;2023-08-07T12:50:34;4.88;;;2.35;;
21494;SDS011;10909;53.590;10.054;2023-08-07T12:53:01;5.95;;;2.17;;
21494;SDS011;10909;53.590;10.054;2023-08-07T12:55:27;6.20;;;2.33;;
21494;SDS011;10909;53.590;10.054;2023-08-07T12:57:54;4.43;;;2.00;;
21494;SDS011;10909;53.590;10.054;2023-08-07T13:00:21;4.00;;;1.98;;
21494;SDS011;10909;53.590;10.054;2023-08-07T13:02:48;4.40;;;2.13;;
21494;SDS011;10909;53.590;10.054;2023-08-07T13:05:15;4.55;;;1.75;;
21494;SDS011;10909;53.590;10.054;2023-08-07T13:07:44;4.32;;;2.22;;
21494;SDS011;10909;53.590;10.054;2023-08-07T13:10:12;3.17;;;1.80;;
21494;SDS011;10909;53.590;10.054;2023-08-07T13:12:40;5.07;;;1.95;;
21494;SDS011;10909;53.590;10.054;2023-08-07T13:15:07;4.72;;;1.90;;
21494;SDS011;10909;53.590;10.054;2023-08-07T13:17:34;3.35;;;1.92;;
21494;SDS011;10909;53.590;10.054;2023-08-07T13:20:01;3.53;;;1.70;;
21494;SDS011;10909;53.590;10.054;2023-08-07T13:22:32;3.80;;;1.80;;
21494;SDS011;10909;53.590;10.054;2023-08-07T13:25:16;2.85;;;1.60;;
21494;SDS011;10909;53.590;10.054;2023-08-07T13:27:42;3.58;;;2.10;;
21494;SDS011;10909;53.590;10.054;2023-08-07T13:30:08;6.28;;;2.30;;
21494;SDS011;10909;53.590;10.054;2023-08-07T13:32:34;3.63;;;2.03;;
21494;SDS011;10909;53.590;10.054;2023-08-07T13:35:01;5.80;;;2.30;;
21494;SDS011;10909;53.590;10.054;2023-08-07T13:37:28;5.43;;;2.30;;
21494;SDS011;10909;53.590;10.054;2023-08-07T13:39:54;7.85;;;2.45;;
21494;SDS011;10909;53.590;10.054;2023-08-07T13:42:23;6.53;;;2.90;;
21494;SDS011;10909;53.590;10.054;2023-08-07T13:44:50;6.95;;;2.70;;
21494;SDS011;10909;53.590;10.054;2023-08-07T13:47:15;4.97;;;2.47;;
21494;SDS011;10909;53.590;10.054;2023-08-07T13:49:42;9.93;;;3.38;;
21494;SDS011;10909;53.590;10.054;2023-08-07T13:52:08;4.80;;;2.58;;
21494;SDS011;10909;53.590;10.054;2023-08-07T13:54:34;9.10;;;3.25;;
21494;SDS011;10909;53.590;10.054;2023-08-07T13:57:00;6.25;;;2.83;;
21494;SDS011;10909;53.590;10.054;2023-08-07T13:59:26;4.68;;;2.67;;
21494;SDS011;10909;53.590;10.054;2023-08-07T14:01:52;4.95;;;2.55;;
21494;SDS011;10909;53.590;10.054;2023-08-07T14:04:18;5.38;;;2.63;;
21494;SDS011;10909;53.590;10.054;2023-08-07T14:06:45;6.70;;;2.17;;
21494;SDS011;10909;53.590;10.054;2023-08-07T14:09:11;4.47;;;2.55;;
21494;SDS011;10909;53.590;10.054;2023-08-07T14:11:39;4.35;;;2.28;;
21494;SDS011;10909;53.590;10.054;2023-08-07T14:14:04;5.53;;;2.40;;
21494;SDS011;10909;53.590;10.054;2023-08-07T14:16:30;6.35;;;2.50;;
21494;SDS011;10909;53.590;10.054;2023-08-07T14:18:56;4.78;;;2.50;;
21494;SDS011;10909;53.590;10.054;2023-08-07T14:21:22;5.80;;;2.45;;
21494;SDS011;10909;53.590;10.054;2023-08-07T14:23:48;4.55;;;2.30;;
21494;SDS011;10909;53.590;10.054;2023-08-07T14:26:14;4.32;;;2.20;;
21494;SDS011;10909;53.590;10.054;2023-08-07T14:28:41;7.05;;;2.58;;
21494;SDS011;10909;53.590;10.054;2023-08-07T14:31:07;6.57;;;2.08;;
21494;SDS011;10909;53.590;10.054;2023-08-07T14:33:33;5.90;;;2.40;;
21494;SDS011;10909;53.590;10.054;2023-08-07T14:35:59;6.18;;;2.70;;
21494;SDS011;10909;53.590;10.054;2023-08-07T14:38:27;4.65;;;2.80;;
21494;SDS011;10909;53.590;10.054;2023-08-07T14:40:53;7.60;;;2.58;;